sensor_id;sensor_type;location;lat;lon;timestamp;pressure;altitude;pressure_sealevel;temperature;humidity
58875;BME280;44652;49.040;12.126;2024-02-04T07:38:52;98312.59;;;5.94;100.00
58875;BME280;44652;49.040;12.126;2024-02-04T07:41:21;98314.22;;;5.92;100.00
58875;BME280;44652;49.040;12.126;2024-02-04T07:43:48;98305.03;;;5.83;100.00
58875;BME280;44652;49.040;12.126;2024-02-04T07:46:15;98320.63;;;5.97;100.00
58875;BME280;44652;49.040;12.126;2024-02-04T07:48:42;98317.28;;;5.99;100.00
58875;BME280;44652;49.040;12.126;2024-02-04T07:51:09;98311.16;;;5.99;100.00
58875;BME280;44652;49.040;12.126;2024-02-04T07:53:36;98302.22;;;5.95;100.00
58875;BME280;44652;49.040;12.126;2024-02-04T07:56:03;98304.44;;;6.04;100.00
58875;BME280;44652;49.040;12.126;2024-02-04T07:58:30;98292.38;;;5.91;100.00
58875;BME280;44652;49.040;12.126;2024-02-04T08:00:57;98319.00;;;5.99;100.00
58875;BME280;44652;49.040;12.126;2024-02-04T08:03:24;98311.41;;;6.03;100.00
58875;BME280;44652;49.040;12.126;2024-02-04T08:05:51;98307.97;;;6.04;100.00
58875;BME280;44652;49.040;12.126;2024-02-04T08:08:18;98306.22;;;6.05;100.00
58875;BME280;44652;49.040;12.126;2024-02-04T08:10:45;98317.47;;;6.02;100.00
58875;BME280;44652;49.040;12.126;2024-02-04T08:13:12;98282.38;;;5.99;100.00
58875;BME280;44652;49.040;12.126;2024-02-04T08:15:39;98296.25;;;5.98;100.00
58875;BME280;44652;49.040;12.126;2024-02-04T08:18:06;98295.94;;;6.08;100.00
58875;BME280;44652;49.040;12.126;2024-02-04T08:20:34;98303.38;;;6.17;100.00
58875;BME280;44652;49.040;12.126;2024-02-04T08:23:01;98297.59;;;6.22;100.00
58875;BME280;44652;49.040;12.126;2024-02-04T08:25:28;98287.03;;;6.21;100.00
58875;BME280;44652;49.040;12.126;2024-02-04T08:27:54;98282.78;;;6.23;100.00
58875;BME280;44652;49.040;12.126;2024-02-04T08:30:24;98276.41;;;6.34;100.00
58875;BME280;44652;49.040;12.126;2024-02-04T08:32:52;98294.97;;;6.39;100.00
58875;BME280;44652;49.040;12.126;2024-02-04T08:35:19;98306.44;;;6.57;100.00
58875;BME280;44652;49.040;12.126;2024-02-04T08:37:45;98301.03;;;6.54;100.00
58875;BME280;44652;49.040;12.126;2024-02-04T08:40:12;98277.22;;;6.49;100.00
58875;BME280;44652;49.040;12.126;2024-02-04T08:42:39;98289.81;;;6.56;100.00
58875;BME280;44652;49.040;12.126;2024-02-04T08:45:07;98294.78;;;6.68;100.00
58875;BME280;44652;49.040;12.126;2024-02-04T08:47:34;98279.75;;;6.64;100.00
58875;BME280;44652;49.040;12.126;2024-02-04T08:50:00;98299.84;;;6.81;100.00
58875;BME280;44652;49.040;12.126;2024-02-04T08:52:27;98305.41;;;6.88;100.00
58875;BME280;44652;49.040;12.126;2024-02-04T08:54:55;98305.97;;;6.98;100.00
58875;BME280;44652;49.040;12.126;2024-02-04T08:57:21;98287.41;;;6.94;100.00
58875;BME280;44652;49.040;12.126;2024-02-04T08:59:48;98289.69;;;6.88;100.00
58875;BME280;44652;49.040;12.126;2024-02-04T09:02:15;98286.56;;;6.95;100.00
58875;BME280;44652;49.040;12.126;2024-02-04T09:04:41;98280.09;;;6.88;100.00
58875;BME280;44652;49.040;12.126;2024-02-04T09:07:08;98302.50;;;6.99;100.00
58875;BME280;44652;49.040;12.126;2024-02-04T09:09:35;98303.28;;;7.15;100.00
58875;BME280;44652;49.040;12.126;2024-02-04T09:12:02;98303.63;;;7.21;100.00
58875;BME280;44652;49.040;12.126;2024-02-04T09:14:29;98298.22;;;7.18;100.00
58875;BME280;44652;49.040;12.126;2024-02-04T09:16:56;98301.88;;;7.21;100.00
58875;BME280;44652;49.040;12.126;2024-02-04T09:19:23;98296.16;;;7.12;100.00
58875;BME280;44652;49.040;12.126;2024-02-04T09:21:55;98313.03;;;7.17;100.00
58875;BME280;44652;49.040;12.126;2024-02-04T09:24:22;98308.53;;;7.15;100.00
58875;BME280;44652;49.040;12.126;2024-02-04T09:26:49;98313.88;;;7.16;100.00
58875;BME280;44652;49.040;12.126;2024-02-04T09:29:16;98327.28;;;7.22;100.00
58875;BME280;44652;49.040;12.126;2024-02-04T09:31:42;98312.44;;;7.23;100.00
58875;BME280;44652;49.040;12.126;2024-02-04T09:34:09;98312.69;;;7.27;100.00
58875;BME280;44652;49.040;12.126;2024-02-04T09:36:37;98316.13;;;7.26;100.00
58875;BME280;44652;49.040;12.126;2024-02-04T09:39:03;98315.75;;;7.37;100.00
58875;BME280;44652;49.040;12.126;2024-02-04T09:41:30;98308.41;;;7.29;100.00
58875;BME280;44652;49.040;12.126;2024-02-04T09:43:58;98291.16;;;7.35;100.00
58875;BME280;44652;49.040;12.126;2024-02-04T09:46:25;98310.22;;;7.48;100.00
58875;BME280;44652;49.040;12.126;2024-02-04T09:48:53;98310.66;;;7.57;100.00
58875;BME280;44652;49.040;12.126;2024-02-04T09:51:22;98290.59;;;7.58;100.00
58875;BME280;44652;49.040;12.126;2024-02-04T09:53:53;98289.19;;;7.47;100.00
58875;BME280;44652;49.040;12.126;2024-02-04T09:56:22;98289.16;;;7.65;100.00
58875;BME280;44652;49.040;12.126;2024-02-04T09:58:52;98274.72;;;7.55;100.00
58875;BME280;44652;49.040;12.126;2024-02-04T10:01:19;98290.88;;;7.64;100.00
58875;BME280;44652;49.040;12.126;2024-02-04T10:03:49;98280.78;;;7.54;100.00
58875;BME280;44652;49.040;12.126;2024-02-04T10:06:16;98309.03;;;7.77;100.00
58875;BME280;44652;49.040;12.126;2024-02-04T10:08:43;98290.28;;;7.70;100.00
58875;BME280;44652;49.040;12.126;2024-02-04T10:11:10;98301.97;;;7.76;100.00
58875;BME280;44652;49.040;12.126;2024-02-04T10:13:49;98301.97;;;7.76;100.00
58875;BME280;44652;49.040;12.126;2024-02-04T10:16:16;98312.06;;;7.87;100.00
58875;BME280;44652;49.040;12.126;2024-02-04T10:18:44;98301.53;;;7.85;100.00
58875;BME280;44652;49.040;12.126;2024-02-04T10:21:18;98290.28;;;7.70;100.00
58875;BME280;44652;49.040;12.126;2024-02-04T10:23:49;98275.50;;;7.72;100.00
58875;BME280;44652;49.040;12.126;2024-02-04T10:26:17;98256.69;;;7.80;100.00
58875;BME280;44652;49.040;12.126;2024-02-04T10:28:46;98270.94;;;7.86;100.00
58875;BME280;44652;49.040;12.126;2024-02-04T10:31:14;98251.56;;;7.84;100.00
58875;BME280;44652;49.040;12.126;2024-02-04T10:33:41;98265.66;;;8.03;100.00
58875;BME280;44652;49.040;12.126;2024-02-04T10:36:08;98249.75;;;8.00;100.00
58875;BME280;44652;49.040;12.126;2024-02-04T10:38:35;98240.84;;;7.97;100.00
58875;BME280;44652;49.040;12.126;2024-02-04T10:41:02;98249.28;;;8.09;100.00
58875;BME280;44652;49.040;12.126;2024-02-04T10:43:32;98235.41;;;8.12;100.00
58875;BME280;44652;49.040;12.126;2024-02-04T10:46:09;98253.78;;;8.31;100.00
58875;BME280;44652;49.040;12.126;2024-02-04T10:48:37;98262.06;;;8.21;100.00
58875;BME280;44652;49.040;12.126;2024-02-04T10:51:15;98258.59;;;8.22;100.00
58875;BME280;44652;49.040;12.126;2024-02-04T10:53:43;98260.13;;;8.17;100.00
58875;BME280;44652;49.040;12.126;2024-02-04T10:56:21;98271.13;;;8.27;100.00
58875;BME280;44652;49.040;12.126;2024-02-04T10:58:50;98250.72;;;8.22;100.00
58875;BME280;44652;49.040;12.126;2024-02-04T11:01:18;98271.09;;;8.45;100.00
58875;BME280;44652;49.040;12.126;2024-02-04T11:03:46;98251.28;;;8.34;100.00
58875;BME280;44652;49.040;12.126;2024-02-04T11:06:13;98251.94;;;8.48;100.00
58875;BME280;44652;49.040;12.126;2024-02-04T11:08:40;98233.53;;;8.48;100.00
58875;BME280;44652;49.040;12.126;2024-02-04T11:11:07;98245.56;;;8.62;100.00
58875;BME280;44652;49.040;12.126;2024-02-04T11:13:35;98227.03;;;8.59;100.00
58875;BME280;44652;49.040;12.126;2024-02-04T11:16:07;98223.50;;;8.59;100.00
58875;BME280;44652;49.040;12.126;2024-02-04T11:18:54;98209.44;;;8.57;100.00
58875;BME280;44652;49.040;12.126;2024-02-04T11:21:39;98226.31;;;8.63;100.00
58875;BME280;44652;49.040;12.126;2024-02-04T11:27:09;98215.63;;;8.59;100.00
58875;BME280;44652;49.040;12.126;2024-02-04T11:29:36;98224.50;;;8.61;100.00
58875;BME280;44652;49.040;12.126;2024-02-04T11:32:03;98215.16;;;8.48;100.00
58875;BME280;44652;49.040;12.126;2024-02-04T11:34:30;98237.97;;;8.49;100.00
58875;BME280;44652;49.040;12.126;2024-02-04T11:36:57;98219.25;;;8.41;100.00
58875;BME280;44652;49.040;12.126;2024-02-04T11:39:26;98223.72;;;8.44;100.00
58875;BME280;44652;49.040;12.126;2024-02-04T11:41:53;98229.69;;;8.40;100.00
58875;BME280;44652;49.040;12.126;2024-02-04T11:44:24;98215.94;;;8.45;100.00
58875;BME280;44652;49.040;12.126;2024-02-04T11:46:51;98215.44;;;8.54;100.00
58875;BME280;44652;49.040;12.126;2024-02-04T11:49:19;98211.78;;;8.50;100.00
58875;BME280;44652;49.040;12.126;2024-02-04T11:51:51;98208.16;;;8.48;100.00
58875;BME280;44652;49.040;12.126;2024-02-04T11:54:20;98203.84;;;8.49;100.00
58875;BME280;44652;49.040;12.126;2024-02-04T11:56:53;98186.25;;;8.48;100.00
58875;BME280;44652;49.040;12.126;2024-02-04T11:59:21;98200.69;;;8.58;100.00
58875;BME280;44652;49.040;12.126;2024-02-04T12:01:53;98193.09;;;8.44;100.00
58875;BME280;44652;49.040;12.126;2024-02-04T12:04:20;98187.75;;;8.41;100.00
58875;BME280;44652;49.040;12.126;2024-02-04T12:06:48;98193.34;;;8.49;100.00
58875;BME280;44652;49.040;12.126;2024-02-04T12:09:17;98166.47;;;8.37;100.00
58875;BME280;44652;49.040;12.126;2024-02-04T12:11:49;98179.22;;;8.47;100.00
58875;BME280;44652;49.040;12.126;2024-02-04T12:14:16;98180.63;;;8.39;100.00
58875;BME280;44652;49.040;12.126;2024-02-04T12:16:45;98149.16;;;8.40;100.00
58875;BME280;44652;49.040;12.126;2024-02-04T12:19:12;98163.50;;;8.48;100.00
58875;BME280;44652;49.040;12.126;2024-02-04T12:21:38;98124.72;;;8.41;100.00
58875;BME280;44652;49.040;12.126;2024-02-04T12:24:06;98143.41;;;8.49;100.00
58875;BME280;44652;49.040;12.126;2024-02-04T12:26:33;98129.81;;;8.59;100.00
58875;BME280;44652;49.040;12.126;2024-02-04T12:29:00;98119.47;;;8.41;99.76
58875;BME280;44652;49.040;12.126;2024-02-04T12:31:27;98127.56;;;8.47;100.00
58875;BME280;44652;49.040;12.126;2024-02-04T12:33:59;98119.56;;;8.44;100.00
58875;BME280;44652;49.040;12.126;2024-02-04T12:36:30;98123.69;;;8.38;100.00
58875;BME280;44652;49.040;12.126;2024-02-04T12:38:57;98136.34;;;8.48;100.00
58875;BME280;44652;49.040;12.126;2024-02-04T12:41:25;98125.97;;;8.51;100.00
58875;BME280;44652;49.040;12.126;2024-02-04T12:43:55;98105.63;;;8.45;100.00
58875;BME280;44652;49.040;12.126;2024-02-04T12:46:22;98111.56;;;8.41;100.00
58875;BME280;44652;49.040;12.126;2024-02-04T12:51:28;98120.22;;;8.39;100.00
58875;BME280;44652;49.040;12.126;2024-02-04T12:54:11;98129.13;;;8.42;100.00
58875;BME280;44652;49.040;12.126;2024-02-04T12:59:32;98109.34;;;8.31;100.00
58875;BME280;44652;49.040;12.126;2024-02-04T13:02:03;98107.59;;;8.32;100.00
58875;BME280;44652;49.040;12.126;2024-02-04T13:04:35;98132.13;;;8.32;100.00
58875;BME280;44652;49.040;12.126;2024-02-04T13:07:06;98130.50;;;8.34;100.00
58875;BME280;44652;49.040;12.126;2024-02-04T13:09:33;98131.19;;;8.30;100.00
58875;BME280;44652;49.040;12.126;2024-02-04T13:12:07;98134.78;;;8.13;100.00
58875;BME280;44652;49.040;12.126;2024-02-04T13:14:37;98115.66;;;8.15;100.00
58875;BME280;44652;49.040;12.126;2024-02-04T13:17:05;98110.66;;;8.21;100.00
58875;BME280;44652;49.040;12.126;2024-02-04T13:19:36;98122.34;;;8.28;100.00
58875;BME280;44652;49.040;12.126;2024-02-04T13:22:04;98133.47;;;8.22;100.00
58875;BME280;44652;49.040;12.126;2024-02-04T13:24:32;98120.22;;;8.19;100.00
58875;BME280;44652;49.040;12.126;2024-02-04T13:26:59;98108.03;;;8.21;100.00
58875;BME280;44652;49.040;12.126;2024-02-04T13:29:27;98113.56;;;8.27;100.00
58875;BME280;44652;49.040;12.126;2024-02-04T13:31:54;98122.47;;;8.31;100.00
58875;BME280;44652;49.040;12.126;2024-02-04T13:34:22;98115.69;;;8.36;100.00
58875;BME280;44652;49.040;12.126;2024-02-04T13:36:49;98111.97;;;8.31;100.00
58875;BME280;44652;49.040;12.126;2024-02-04T13:39:17;98116.94;;;8.25;100.00
58875;BME280;44652;49.040;12.126;2024-02-04T13:41:44;98102.44;;;8.14;100.00
58875;BME280;44652;49.040;12.126;2024-02-04T13:44:11;98102.09;;;8.25;100.00
58875;BME280;44652;49.040;12.126;2024-02-04T13:46:38;98099.03;;;8.15;100.00
58875;BME280;44652;49.040;12.126;2024-02-04T13:49:09;98094.91;;;8.21;100.00
58875;BME280;44652;49.040;12.126;2024-02-04T13:51:39;98095.88;;;8.23;100.00
58875;BME280;44652;49.040;12.126;2024-02-04T13:54:11;98092.50;;;8.26;100.00
58875;BME280;44652;49.040;12.126;2024-02-04T13:56:42;98096.41;;;8.36;100.00
58875;BME280;44652;49.040;12.126;2024-02-04T13:59:09;98095.16;;;8.47;100.00
58875;BME280;44652;49.040;12.126;2024-02-04T14:01:36;98093.69;;;8.53;100.00
58875;BME280;44652;49.040;12.126;2024-02-04T14:04:03;98080.63;;;8.55;100.00
58875;BME280;44652;49.040;12.126;2024-02-04T14:06:30;98086.00;;;8.58;100.00
58875;BME280;44652;49.040;12.126;2024-02-04T14:08:56;98064.72;;;8.52;100.00
58875;BME280;44652;49.040;12.126;2024-02-04T14:11:23;98072.59;;;8.52;100.00
58875;BME280;44652;49.040;12.126;2024-02-04T14:13:50;98079.72;;;8.55;100.00
58875;BME280;44652;49.040;12.126;2024-02-04T14:16:16;98097.34;;;8.57;100.00
58875;BME280;44652;49.040;12.126;2024-02-04T14:18:43;98098.28;;;8.59;100.00
58875;BME280;44652;49.040;12.126;2024-02-04T14:21:13;98101.19;;;8.65;100.00
58875;BME280;44652;49.040;12.126;2024-02-04T14:23:43;98107.28;;;8.64;99.85
58875;BME280;44652;49.040;12.126;2024-02-04T14:26:20;98109.91;;;8.64;99.65
58875;BME280;44652;49.040;12.126;2024-02-04T14:28:48;98116.91;;;8.64;99.69
58875;BME280;44652;49.040;12.126;2024-02-04T14:31:14;98100.69;;;8.53;100.00
58875;BME280;44652;49.040;12.126;2024-02-04T14:33:42;98101.31;;;8.47;100.00
58875;BME280;44652;49.040;12.126;2024-02-04T14:36:09;98128.69;;;8.52;100.00
58875;BME280;44652;49.040;12.126;2024-02-04T14:38:36;98135.31;;;8.44;100.00
58875;BME280;44652;49.040;12.126;2024-02-04T14:41:05;98119.47;;;8.41;100.00
58875;BME280;44652;49.040;12.126;2024-02-04T14:43:33;98122.97;;;8.42;100.00
58875;BME280;44652;49.040;12.126;2024-02-04T14:46:00;98144.75;;;8.39;100.00
58875;BME280;44652;49.040;12.126;2024-02-04T14:48:27;98119.72;;;8.28;100.00
58875;BME280;44652;49.040;12.126;2024-02-04T14:50:54;98119.53;;;8.23;100.00
58875;BME280;44652;49.040;12.126;2024-02-04T14:53:23;98141.56;;;8.27;100.00
58875;BME280;44652;49.040;12.126;2024-02-04T14:55:49;98153.84;;;8.28;100.00
58875;BME280;44652;49.040;12.126;2024-02-04T14:58:16;98146.63;;;8.22;100.00
58875;BME280;44652;49.040;12.126;2024-02-04T15:00:43;98135.88;;;8.18;100.00
58875;BME280;44652;49.040;12.126;2024-02-04T15:03:10;98144.53;;;8.15;100.00
58875;BME280;44652;49.040;12.126;2024-02-04T15:05:37;98154.41;;;8.21;100.00
58875;BME280;44652;49.040;12.126;2024-02-04T15:08:05;98146.28;;;8.15;100.00
58875;BME280;44652;49.040;12.126;2024-02-04T15:10:32;98162.22;;;8.19;100.00
58875;BME280;44652;49.040;12.126;2024-02-04T15:13:00;98138.06;;;8.07;100.00
58875;BME280;44652;49.040;12.126;2024-02-04T15:15:27;98147.16;;;8.15;100.00
58875;BME280;44652;49.040;12.126;2024-02-04T15:17:54;98129.34;;;8.08;100.00
58875;BME280;44652;49.040;12.126;2024-02-04T15:20:23;98162.94;;;8.15;100.00
58875;BME280;44652;49.040;12.126;2024-02-04T15:22:51;98137.47;;;8.14;100.00
58875;BME280;44652;49.040;12.126;2024-02-04T15:25:18;98145.09;;;8.08;100.00
58875;BME280;44652;49.040;12.126;2024-02-04T15:27:47;98133.75;;;8.09;100.00
58875;BME280;44652;49.040;12.126;2024-02-04T15:30:15;98127.22;;;7.99;100.00
58875;BME280;44652;49.040;12.126;2024-02-04T15:32:43;98138.31;;;8.13;100.00
58875;BME280;44652;49.040;12.126;2024-02-04T15:35:11;98126.31;;;7.99;100.00
58875;BME280;44652;49.040;12.126;2024-02-04T15:37:39;98152.09;;;8.08;100.00
58875;BME280;44652;49.040;12.126;2024-02-04T15:40:06;98150.41;;;8.10;100.00
58875;BME280;44652;49.040;12.126;2024-02-04T15:42:33;98146.84;;;8.08;100.00
58875;BME280;44652;49.040;12.126;2024-02-04T15:45:00;98131.13;;;8.09;100.00
58875;BME280;44652;49.040;12.126;2024-02-04T15:47:27;98119.13;;;7.95;100.00
58875;BME280;44652;49.040;12.126;2024-02-04T15:49:56;98159.66;;;8.01;100.00
58875;BME280;44652;49.040;12.126;2024-02-04T15:52:23;98127.13;;;7.98;100.00
58875;BME280;44652;49.040;12.126;2024-02-04T15:54:50;98143.31;;;8.07;100.00
58875;BME280;44652;49.040;12.126;2024-02-04T15:57:19;98137.97;;;8.05;100.00
58875;BME280;44652;49.040;12.126;2024-02-04T15:59:51;98110.22;;;7.91;100.00
58875;BME280;44652;49.040;12.126;2024-02-04T16:02:19;98129.84;;;7.99;100.00
58875;BME280;44652;49.040;12.126;2024-02-04T16:04:46;98137.63;;;7.98;100.00
58875;BME280;44652;49.040;12.126;2024-02-04T16:07:15;98125.84;;;7.88;100.00
58875;BME280;44652;49.040;12.126;2024-02-04T16:09:41;98132.53;;;8.01;100.00
58875;BME280;44652;49.040;12.126;2024-02-04T16:12:19;98125.50;;;8.00;100.00
58875;BME280;44652;49.040;12.126;2024-02-04T16:14:50;98124.16;;;7.90;100.00
58875;BME280;44652;49.040;12.126;2024-02-04T16:17:19;98113.69;;;7.90;100.00
58875;BME280;44652;49.040;12.126;2024-02-04T16:19:48;98112.03;;;7.92;100.00
58875;BME280;44652;49.040;12.126;2024-02-04T16:22:17;98120.31;;;8.01;100.00
58875;BME280;44652;49.040;12.126;2024-02-04T16:24:44;98107.59;;;7.91;100.00
58875;BME280;44652;49.040;12.126;2024-02-04T16:27:11;98118.03;;;7.90;100.00
58875;BME280;44652;49.040;12.126;2024-02-04T16:29:38;98130.66;;;7.98;100.00
58875;BME280;44652;49.040;12.126;2024-02-04T16:32:04;98109.06;;;7.85;100.00
58875;BME280;44652;49.040;12.126;2024-02-04T16:34:31;98139.38;;;7.97;100.00
58875;BME280;44652;49.040;12.126;2024-02-04T16:37:01;98151.50;;;7.95;100.00
58875;BME280;44652;49.040;12.126;2024-02-04T16:39:29;98151.78;;;8.01;100.00
58875;BME280;44652;49.040;12.126;2024-02-04T16:41:56;98135.75;;;7.95;100.00
58875;BME280;44652;49.040;12.126;2024-02-04T16:44:22;98134.13;;;7.97;100.00
58875;BME280;44652;49.040;12.126;2024-02-04T16:46:49;98124.38;;;7.95;100.00
58875;BME280;44652;49.040;12.126;2024-02-04T16:49:16;98130.50;;;7.95;100.00
58875;BME280;44652;49.040;12.126;2024-02-04T16:51:46;98135.44;;;8.07;100.00
58875;BME280;44652;49.040;12.126;2024-02-04T16:54:13;98129.97;;;8.02;100.00
58875;BME280;44652;49.040;12.126;2024-02-04T16:56:41;98126.53;;;8.03;100.00
58875;BME280;44652;49.040;12.126;2024-02-04T16:59:08;98122.72;;;7.97;100.00
58875;BME280;44652;49.040;12.126;2024-02-04T17:01:35;98135.50;;;8.09;100.00
58875;BME280;44652;49.040;12.126;2024-02-04T17:04:03;98106.09;;;7.96;100.00
58875;BME280;44652;49.040;12.126;2024-02-04T17:06:31;98115.09;;;8.03;100.00
58875;BME280;44652;49.040;12.126;2024-02-04T17:08:58;98132.88;;;8.09;100.00
58875;BME280;44652;49.040;12.126;2024-02-04T17:11:28;98124.78;;;8.04;100.00
58875;BME280;44652;49.040;12.126;2024-02-04T17:13:56;98123.34;;;8.11;100.00
58875;BME280;44652;49.040;12.126;2024-02-04T17:16:37;98139.28;;;8.15;100.00
58875;BME280;44652;49.040;12.126;2024-02-04T17:22:13;98123.53;;;8.15;100.00
58875;BME280;44652;49.040;12.126;2024-02-04T17:24:47;98142.41;;;8.26;100.00
58875;BME280;44652;49.040;12.126;2024-02-04T17:27:18;98121.63;;;8.11;100.00
58875;BME280;44652;49.040;12.126;2024-02-04T17:29:45;98128.22;;;8.22;100.00
58875;BME280;44652;49.040;12.126;2024-02-04T17:32:13;98129.88;;;8.20;100.00
58875;BME280;44652;49.040;12.126;2024-02-04T17:34:41;98111.16;;;8.13;100.00
58875;BME280;44652;49.040;12.126;2024-02-04T17:37:08;98108.59;;;8.14;100.00
58875;BME280;44652;49.040;12.126;2024-02-04T17:39:36;98107.22;;;8.22;100.00
58875;BME280;44652;49.040;12.126;2024-02-04T17:42:04;98108.31;;;8.27;100.00
58875;BME280;44652;49.040;12.126;2024-02-04T17:44:32;98119.72;;;8.28;100.00
58875;BME280;44652;49.040;12.126;2024-02-04T17:47:01;98094.81;;;8.18;100.00
58875;BME280;44652;49.040;12.126;2024-02-04T17:49:28;98098.50;;;8.23;100.00
58875;BME280;44652;49.040;12.126;2024-02-04T17:51:55;98113.00;;;8.35;100.00
58875;BME280;44652;49.040;12.126;2024-02-04T17:54:22;98090.81;;;8.28;100.00
58875;BME280;44652;49.040;12.126;2024-02-04T17:57:07;98092.84;;;8.34;100.00
58875;BME280;44652;49.040;12.126;2024-02-04T18:00:01;98078.44;;;8.25;100.00
58875;BME280;44652;49.040;12.126;2024-02-04T18:02:30;98077.66;;;8.26;100.00
58875;BME280;44652;49.040;12.126;2024-02-04T18:05:12;98067.00;;;8.23;100.00
58875;BME280;44652;49.040;12.126;2024-02-04T18:07:39;98087.44;;;8.31;100.00
58875;BME280;44652;49.040;12.126;2024-02-04T18:10:08;98103.88;;;8.46;100.00
58875;BME280;44652;49.040;12.126;2024-02-04T18:12:35;98080.66;;;8.36;100.00
58875;BME280;44652;49.040;12.126;2024-02-04T18:15:02;98093.94;;;8.39;100.00
58875;BME280;44652;49.040;12.126;2024-02-04T18:17:31;98086.97;;;8.39;100.00
58875;BME280;44652;49.040;12.126;2024-02-04T18:20:25;98127.66;;;8.49;100.00
58875;BME280;44652;49.040;12.126;2024-02-04T18:23:07;98118.03;;;8.49;100.00
58875;BME280;44652;49.040;12.126;2024-02-04T18:25:49;98071.50;;;8.26;100.00
58875;BME280;44652;49.040;12.126;2024-02-04T18:28:16;98097.66;;;8.44;100.00
58875;BME280;44652;49.040;12.126;2024-02-04T18:30:42;98091.31;;;8.39;100.00
58875;BME280;44652;49.040;12.126;2024-02-04T18:33:10;98114.53;;;8.49;100.00
58875;BME280;44652;49.040;12.126;2024-02-04T18:35:37;98115.16;;;8.43;100.00
58875;BME280;44652;49.040;12.126;2024-02-04T18:42:37;98097.81;;;8.27;100.00
58875;BME280;44652;49.040;12.126;2024-02-04T18:45:05;98107.13;;;8.40;100.00
58875;BME280;44652;49.040;12.126;2024-02-04T18:47:33;98104.28;;;8.36;100.00
58875;BME280;44652;49.040;12.126;2024-02-04T18:49:59;98093.31;;;8.25;100.00
58875;BME280;44652;49.040;12.126;2024-02-04T18:52:54;98104.44;;;8.39;100.00
58875;BME280;44652;49.040;12.126;2024-02-04T18:55:28;98103.91;;;8.26;100.00
58875;BME280;44652;49.040;12.126;2024-02-04T18:57:58;98101.28;;;8.26;100.00
58875;BME280;44652;49.040;12.126;2024-02-04T19:01:01;98050.19;;;7.99;100.00
58875;BME280;44652;49.040;12.126;2024-02-04T19:03:46;98096.78;;;8.24;100.00
58875;BME280;44652;49.040;12.126;2024-02-04T19:06:27;98112.88;;;8.32;100.00
58875;BME280;44652;49.040;12.126;2024-02-04T19:08:55;98095.13;;;8.26;100.00
58875;BME280;44652;49.040;12.126;2024-02-04T19:11:22;98077.50;;;8.23;100.00
58875;BME280;44652;49.040;12.126;2024-02-04T19:13:48;98092.69;;;8.31;100.00
58875;BME280;44652;49.040;12.126;2024-02-04T19:16:23;98077.41;;;8.22;100.00
58875;BME280;44652;49.040;12.126;2024-02-04T19:18:50;98069.22;;;8.14;100.00
58875;BME280;44652;49.040;12.126;2024-02-04T19:21:17;98059.56;;;8.13;100.00
58875;BME280;44652;49.040;12.126;2024-02-04T19:23:45;98065.84;;;8.17;100.00
58875;BME280;44652;49.040;12.126;2024-02-04T19:26:14;98054.16;;;8.10;100.00
58875;BME280;44652;49.040;12.126;2024-02-04T19:28:41;98079.06;;;8.18;100.00
58875;BME280;44652;49.040;12.126;2024-02-04T19:31:09;98077.31;;;8.19;100.00
58875;BME280;44652;49.040;12.126;2024-02-04T19:33:38;98085.31;;;8.22;100.00
58875;BME280;44652;49.040;12.126;2024-02-04T19:36:06;98064.91;;;8.15;100.00
58875;BME280;44652;49.040;12.126;2024-02-04T19:38:33;98059.66;;;8.15;100.00
58875;BME280;44652;49.040;12.126;2024-02-04T19:41:01;98081.16;;;8.27;100.00
58875;BME280;44652;49.040;12.126;2024-02-04T19:43:28;98043.28;;;8.22;100.00
58875;BME280;44652;49.040;12.126;2024-02-04T19:45:57;98056.69;;;8.28;100.00
58875;BME280;44652;49.040;12.126;2024-02-04T19:48:25;98075.97;;;8.28;100.00
58875;BME280;44652;49.040;12.126;2024-02-04T19:50:53;98084.72;;;8.29;100.00
58875;BME280;44652;49.040;12.126;2024-02-04T19:53:20;98099.91;;;8.36;100.00
58875;BME280;44652;49.040;12.126;2024-02-04T19:55:46;98078.44;;;8.25;100.00
58875;BME280;44652;49.040;12.126;2024-02-04T19:58:34;98084.72;;;8.29;100.00
58875;BME280;44652;49.040;12.126;2024-02-04T20:01:00;98077.50;;;8.23;100.00
58875;BME280;44652;49.040;12.126;2024-02-04T20:03:27;98062.78;;;8.27;100.00
58875;BME280;44652;49.040;12.126;2024-02-04T20:06:01;98061.81;;;8.25;100.00
58875;BME280;44652;49.040;12.126;2024-02-04T20:08:30;98076.25;;;8.35;100.00
58875;BME280;44652;49.040;12.126;2024-02-04T20:10:57;98079.94;;;8.38;100.00
58875;BME280;44652;49.040;12.126;2024-02-04T20:13:24;98082.59;;;8.40;100.00
58875;BME280;44652;49.040;12.126;2024-02-04T20:15:53;98079.22;;;8.42;100.00
58875;BME280;44652;49.040;12.126;2024-02-04T20:18:21;98094.13;;;8.43;100.00
58875;BME280;44652;49.040;12.126;2024-02-04T20:20:47;98081.34;;;8.32;100.00
58875;BME280;44652;49.040;12.126;2024-02-04T20:23:14;98082.38;;;8.35;100.00
58875;BME280;44652;49.040;12.126;2024-02-04T20:25:42;98086.91;;;8.38;100.00
58875;BME280;44652;49.040;12.126;2024-02-04T20:28:10;98095.69;;;8.38;100.00
58875;BME280;44652;49.040;12.126;2024-02-04T20:30:37;98086.59;;;8.32;100.00
58875;BME280;44652;49.040;12.126;2024-02-04T20:33:04;98097.66;;;8.44;100.00
58875;BME280;44652;49.040;12.126;2024-02-04T20:35:31;98074.22;;;8.29;100.00
58875;BME280;44652;49.040;12.126;2024-02-04T20:38:01;98066.50;;;8.32;100.00
58875;BME280;44652;49.040;12.126;2024-02-04T20:40:28;98081.75;;;8.41;100.00
58875;BME280;44652;49.040;12.126;2024-02-04T20:42:55;98067.13;;;8.26;100.00
58875;BME280;44652;49.040;12.126;2024-02-04T20:45:22;98067.91;;;8.24;100.00
58875;BME280;44652;49.040;12.126;2024-02-04T20:47:48;98055.66;;;8.24;100.00
58875;BME280;44652;49.040;12.126;2024-02-04T20:50:16;98046.13;;;8.26;100.00
58875;BME280;44652;49.040;12.126;2024-02-04T20:52:43;98060.34;;;8.32;100.00